Time;durP1;ratioP1;P1;durP2;ratioP2;P2;SDS_P1;SDS_P2;PMS_P1;PMS_P2;Temp;Humidity;BMP_temperature;BMP_pressure;BME280_temperature;BME280_humidity;BME280_pressure;Samples;Min_cycle;Max_cycle;Signal;HPM_P1;HPM_P2
2022/03/16 00:00:15;;;;;;;50.63;27.38;;;4.70;99.90;;;;;;5092065;28;20020;-87
2022/03/16 00:02:40;;;;;;;57.60;27.42;;;4.70;99.90;;;;;;5090017;28;20609;-88
2022/03/16 00:05:06;;;;;;;45.83;25.15;;;4.70;99.90;;;;;;5111406;28;20028;-87
2022/03/16 00:07:37;;;;;;;46.05;23.85;;;4.70;99.90;;;;;;5101267;28;20090;-87
2022/03/16 00:10:05;;;;;;;48.10;26.13;;;4.70;99.90;;;;;;5077685;28;20044;-87
2022/03/16 00:12:30;;;;;;;65.85;30.67;;;4.70;99.90;;;;;;5096059;28;20077;-87
2022/03/16 00:15:00;;;;;;;53.40;29.65;;;4.70;99.90;;;;;;5095686;28;20020;-87
2022/03/16 00:17:26;;;;;;;55.60;29.77;;;4.70;99.90;;;;;;5087622;28;20078;-88
2022/03/16 00:19:52;;;;;;;63.95;31.35;;;4.60;99.90;;;;;;5083021;28;20051;-88
2022/03/16 00:22:23;;;;;;;61.90;30.77;;;4.50;99.90;;;;;;5102796;28;20016;-87
2022/03/16 00:24:49;;;;;;;64.05;32.10;;;4.60;99.90;;;;;;5115922;28;20035;-87
2022/03/16 00:27:14;;;;;;;60.75;32.33;;;4.50;99.90;;;;;;5108480;28;20440;-87
2022/03/16 00:29:43;;;;;;;89.75;39.65;;;4.50;99.90;;;;;;5103883;28;20063;-87
2022/03/16 00:32:09;;;;;;;97.25;42.92;;;4.40;99.90;;;;;;5108776;28;20028;-87
2022/03/16 00:34:34;;;;;;;110.30;41.92;;;4.50;99.90;;;;;;5116139;28;20032;-87
2022/03/16 00:37:03;;;;;;;111.97;44.88;;;4.40;99.90;;;;;;5111127;28;20391;-87
2022/03/16 00:39:29;;;;;;;175.95;55.88;;;4.40;99.90;;;;;;5109752;28;20030;-87
2022/03/16 00:41:55;;;;;;;165.23;53.70;;;4.50;99.90;;;;;;5094116;28;20035;-87
2022/03/16 00:44:21;;;;;;;231.30;77.15;;;4.40;99.90;;;;;;5095117;28;20380;-88
2022/03/16 00:46:47;;;;;;;233.65;76.65;;;4.50;99.90;;;;;;5095533;28;20020;-87
2022/03/16 00:49:12;;;;;;;285.65;86.57;;;4.40;99.90;;;;;;5093929;28;20024;-88
2022/03/16 00:51:40;;;;;;;295.67;91.03;;;4.50;99.90;;;;;;5114662;28;20031;-87
2022/03/16 00:54:06;;;;;;;287.00;88.28;;;4.50;99.90;;;;;;5098314;28;20475;-87
2022/03/16 00:56:32;;;;;;;301.90;95.45;;;4.50;99.90;;;;;;5097830;28;20020;-87
2022/03/16 00:59:03;;;;;;;311.20;94.25;;;4.60;99.90;;;;;;5112555;28;20039;-87
2022/03/16 01:01:52;;;;;;;248.98;80.35;;;4.60;99.90;;;;;;5107196;28;20040;-87
2022/03/16 01:04:17;;;;;;;204.38;67.93;;;4.60;99.90;;;;;;5096748;28;20027;-88
2022/03/16 01:06:43;;;;;;;169.82;60.33;;;4.60;99.90;;;;;;5096983;28;20023;-87
2022/03/16 01:09:13;;;;;;;141.23;52.47;;;4.70;99.90;;;;;;5112014;28;20031;-87
2022/03/16 01:11:38;;;;;;;119.65;48.42;;;4.60;99.90;;;;;;5077468;28;20066;-87
2022/03/16 01:14:04;;;;;;;117.57;46.58;;;4.60;99.90;;;;;;5111243;28;20430;-87
2022/03/16 01:17:20;;;;;;;123.93;47.60;;;4.70;99.90;;;;;;5115052;28;20383;-87
2022/03/16 01:19:46;;;;;;;103.55;45.00;;;4.60;99.90;;;;;;5103668;28;20538;-87
2022/03/16 01:22:11;;;;;;;103.22;42.13;;;4.60;99.90;;;;;;5107582;28;20047;-87
2022/03/16 01:24:45;;;;;;;86.97;37.88;;;4.50;99.90;;;;;;5094282;28;20532;-87
2022/03/16 01:27:11;;;;;;;78.05;34.28;;;4.50;99.90;;;;;;5076348;28;20559;-88
2022/03/16 01:29:36;;;;;;;75.72;32.45;;;4.50;99.90;;;;;;5076685;28;20050;-87
2022/03/16 01:32:03;;;;;;;69.57;31.70;;;4.50;99.90;;;;;;5092937;28;20028;-87
2022/03/16 01:34:28;;;;;;;61.88;29.67;;;4.50;99.90;;;;;;5094248;28;20025;-87
2022/03/16 01:36:54;;;;;;;61.97;27.92;;;4.40;99.90;;;;;;5075848;28;20028;-87
2022/03/16 01:39:23;;;;;;;60.08;26.58;;;4.50;99.90;;;;;;5106864;28;20024;-87
2022/03/16 01:41:50;;;;;;;53.13;27.80;;;4.50;99.90;;;;;;5076260;28;20024;-87
2022/03/16 01:44:41;;;;;;;61.20;29.88;;;4.40;99.90;;;;;;5108565;28;20103;-87
2022/03/16 01:47:07;;;;;;;56.80;28.05;;;4.40;99.90;;;;;;5114231;28;20095;-87
2022/03/16 01:49:32;;;;;;;47.75;25.23;;;4.40;99.90;;;;;;5114362;28;20157;-87
2022/03/16 01:52:03;;;;;;;50.95;25.08;;;4.30;99.90;;;;;;5113509;28;20020;-86
2022/03/16 01:54:28;;;;;;;47.95;23.58;;;4.40;99.90;;;;;;5093688;28;20102;-87
2022/03/16 01:56:54;;;;;;;50.65;25.63;;;4.40;99.90;;;;;;5075740;28;20035;-87
2022/03/16 01:59:46;;;;;;;54.65;29.42;;;4.40;99.90;;;;;;5108215;28;20069;-87
2022/03/16 02:02:12;;;;;;;56.90;28.15;;;4.40;99.90;;;;;;5113750;28;20059;-87
2022/03/16 02:04:39;;;;;;;51.40;25.00;;;4.30;99.90;;;;;;5093011;28;20102;-87
2022/03/16 02:07:06;;;;;;;45.70;24.20;;;4.30;99.90;;;;;;5093358;28;20240;-86
2022/03/16 02:09:32;;;;;;;48.40;24.33;;;4.20;99.90;;;;;;5095557;28;20418;-87
2022/03/16 02:11:58;;;;;;;43.05;23.45;;;4.20;99.90;;;;;;5108150;28;20066;-87
2022/03/16 02:14:24;;;;;;;44.33;23.35;;;4.30;99.90;;;;;;5101044;28;20037;-87
2022/03/16 02:16:50;;;;;;;46.55;24.75;;;4.20;99.90;;;;;;5110514;28;20028;-87
2022/03/16 02:19:15;;;;;;;57.42;28.75;;;4.10;99.90;;;;;;5094041;28;20072;-87
2022/03/16 02:21:46;;;;;;;59.72;27.35;;;4.10;99.90;;;;;;5094819;28;20059;-87
2022/03/16 02:24:11;;;;;;;55.70;28.40;;;4.10;99.90;;;;;;5104671;28;20089;-87
2022/03/16 02:26:38;;;;;;;56.88;29.10;;;4.10;99.90;;;;;;5093367;28;20016;-87
2022/03/16 02:29:12;;;;;;;63.33;28.02;;;4.10;99.90;;;;;;5091805;28;20483;-87
2022/03/16 02:31:37;;;;;;;55.85;28.75;;;4.10;99.90;;;;;;5074844;28;20031;-87
2022/03/16 02:34:10;;;;;;;65.75;28.60;;;4.10;99.90;;;;;;5093211;28;20021;-87
2022/03/16 02:36:36;;;;;;;52.53;25.08;;;4.00;99.90;;;;;;5075039;28;20027;-87
2022/03/16 02:39:01;;;;;;;48.63;25.08;;;4.00;99.90;;;;;;5106283;28;20384;-87
2022/03/16 02:41:28;;;;;;;45.35;24.83;;;4.00;99.90;;;;;;5105206;28;20089;-87
2022/03/16 02:43:53;;;;;;;42.80;22.17;;;4.00;99.90;;;;;;5113252;28;20020;-86
2022/03/16 02:46:19;;;;;;;45.45;23.17;;;4.00;99.90;;;;;;5113366;28;20127;-86
2022/03/16 02:48:45;;;;;;;44.45;22.50;;;3.90;99.90;;;;;;5093598;28;20107;-86
2022/03/16 02:51:10;;;;;;;43.67;22.60;;;3.90;99.90;;;;;;5092931;28;20065;-87
2022/03/16 02:53:36;;;;;;;47.20;22.85;;;3.90;99.90;;;;;;5102961;28;20023;-86
2022/03/16 02:56:03;;;;;;;45.28;23.92;;;3.80;99.90;;;;;;5113031;28;20116;-86
2022/03/16 02:58:28;;;;;;;44.80;22.75;;;3.80;99.90;;;;;;5113185;28;20020;-86
2022/03/16 03:00:54;;;;;;;42.90;22.15;;;3.70;99.90;;;;;;5090529;28;20381;-86
2022/03/16 03:03:30;;;;;;;41.70;21.80;;;3.70;99.90;;;;;;5091511;28;20051;-86
2022/03/16 03:05:55;;;;;;;40.53;22.42;;;3.70;99.90;;;;;;5083450;28;20017;-86
2022/03/16 03:08:21;;;;;;;46.42;23.70;;;3.60;99.90;;;;;;5108241;28;20042;-87
2022/03/16 03:10:54;;;;;;;49.63;24.23;;;3.60;99.90;;;;;;5108230;28;20059;-86
2022/03/16 03:13:19;;;;;;;64.13;30.67;;;3.60;99.90;;;;;;5089897;28;20029;-87
2022/03/16 03:15:45;;;;;;;60.53;29.92;;;3.60;99.90;;;;;;5072317;28;20078;-86
2022/03/16 03:18:48;;;;;;;57.28;28.55;;;3.60;99.90;;;;;;5072511;28;20048;-86
2022/03/16 03:21:13;;;;;;;50.83;26.25;;;3.60;99.90;;;;;;5072647;28;20085;-86
2022/03/16 03:23:39;;;;;;;48.65;25.50;;;3.60;99.90;;;;;;5088155;28;20020;-87
2022/03/16 03:26:42;;;;;;;58.40;29.70;;;3.60;99.90;;;;;;5072393;28;20095;-87
2022/03/16 03:29:08;;;;;;;58.88;29.00;;;3.60;99.90;;;;;;5073548;28;20040;-87
2022/03/16 03:31:34;;;;;;;63.70;31.00;;;3.60;99.90;;;;;;5092535;28;20020;-86
2022/03/16 03:34:03;;;;;;;57.13;28.65;;;3.60;99.90;;;;;;5075969;28;20373;-87
2022/03/16 03:36:29;;;;;;;70.80;34.08;;;3.60;99.90;;;;;;5087984;28;20023;-86
2022/03/16 03:38:55;;;;;;;55.72;29.88;;;3.50;99.90;;;;;;5071991;28;20024;-87
2022/03/16 03:41:57;;;;;;;68.47;32.90;;;3.50;99.90;;;;;;5072226;28;20082;-87
2022/03/16 03:44:23;;;;;;;66.18;31.35;;;3.40;99.90;;;;;;5080582;28;20020;-87
2022/03/16 03:46:48;;;;;;;69.50;33.63;;;3.40;99.90;;;;;;5094405;28;20392;-87
2022/03/16 03:49:25;;;;;;;64.45;30.40;;;3.50;99.90;;;;;;5095823;28;20020;-87
2022/03/16 03:51:51;;;;;;;69.72;34.75;;;3.40;99.90;;;;;;5095998;28;20376;-87
2022/03/16 03:54:16;;;;;;;71.68;34.47;;;3.30;99.90;;;;;;5095866;28;20017;-87
2022/03/16 03:57:01;;;;;;;63.22;31.17;;;3.30;99.90;;;;;;5077652;28;20028;-87
2022/03/16 03:59:26;;;;;;;57.80;30.08;;;3.30;99.90;;;;;;5074259;28;20426;-87
2022/03/16 04:01:52;;;;;;;58.28;28.80;;;3.20;99.90;;;;;;5105466;28;20051;-87
2022/03/16 04:04:41;;;;;;;68.70;31.98;;;3.20;99.90;;;;;;5097929;28;20153;-87
2022/03/16 04:07:10;;;;;;;52.45;28.92;;;3.20;99.90;;;;;;5081137;28;20502;-87
2022/03/16 04:09:35;;;;;;;56.35;30.45;;;3.10;99.90;;;;;;5095998;28;20032;-87
2022/03/16 04:12:00;;;;;;;66.20;32.05;;;3.10;99.90;;;;;;5095772;28;20020;-87
2022/03/16 04:14:35;;;;;;;72.03;37.25;;;3.10;99.90;;;;;;5095794;28;20032;-87
2022/03/16 04:17:01;;;;;;;64.20;33.33;;;3.10;99.90;;;;;;5095780;28;20032;-86
2022/03/16 04:19:26;;;;;;;58.60;31.67;;;3.10;99.90;;;;;;5094321;28;20587;-86
2022/03/16 04:21:52;;;;;;;51.75;28.45;;;3.10;99.90;;;;;;5097142;28;20020;-87
2022/03/16 04:24:17;;;;;;;56.63;28.90;;;3.10;99.90;;;;;;5095494;28;20490;-87
2022/03/16 04:26:43;;;;;;;46.90;26.63;;;3.10;99.90;;;;;;5096461;28;20031;-87
2022/03/16 04:29:09;;;;;;;56.72;28.70;;;3.10;99.90;;;;;;5110915;28;20475;-86
2022/03/16 04:31:34;;;;;;;58.45;31.35;;;3.20;99.90;;;;;;5090657;28;20022;-86
2022/03/16 04:34:00;;;;;;;62.22;29.45;;;3.10;99.90;;;;;;5102915;28;20024;-87
2022/03/16 04:36:42;;;;;;;60.15;31.23;;;3.10;99.90;;;;;;5101101;28;20022;-86
2022/03/16 04:39:08;;;;;;;70.77;34.80;;;3.00;99.90;;;;;;5095235;28;20091;-87
2022/03/16 04:41:34;;;;;;;56.10;31.77;;;3.00;99.90;;;;;;5095346;28;20103;-87
2022/03/16 04:44:11;;;;;;;58.03;29.75;;;3.00;99.90;;;;;;5095072;28;20032;-87
2022/03/16 04:46:37;;;;;;;56.45;29.80;;;2.90;99.90;;;;;;5095218;28;20073;-87
2022/03/16 04:49:03;;;;;;;56.92;30.23;;;2.90;99.90;;;;;;5095213;28;20036;-87
2022/03/16 04:51:40;;;;;;;63.22;32.65;;;2.90;99.90;;;;;;5076509;28;20476;-88
2022/03/16 04:54:06;;;;;;;57.42;31.83;;;2.90;99.90;;;;;;5094825;28;20070;-87
2022/03/16 04:56:40;;;;;;;61.78;29.58;;;2.90;99.90;;;;;;5076947;28;20089;-87
2022/03/16 04:59:06;;;;;;;62.20;30.83;;;2.90;99.90;;;;;;5094380;28;20028;-87
2022/03/16 05:01:32;;;;;;;55.83;29.60;;;2.80;99.90;;;;;;5094041;28;20119;-87
2022/03/16 05:04:01;;;;;;;49.30;28.27;;;2.80;99.90;;;;;;5094739;28;20111;-87
2022/03/16 05:06:26;;;;;;;55.08;28.67;;;2.70;99.90;;;;;;5089663;28;20392;-87
2022/03/16 05:08:53;;;;;;;53.03;30.35;;;2.80;99.90;;;;;;5111811;28;20072;-87
2022/03/16 05:11:22;;;;;;;64.95;32.08;;;2.80;99.90;;;;;;5115156;28;20460;-87
2022/03/16 05:13:48;;;;;;;56.13;31.35;;;2.80;99.90;;;;;;5100004;28;20020;-87
2022/03/16 05:16:26;;;;;;;56.85;30.60;;;2.80;99.90;;;;;;5076609;28;20047;-87
2022/03/16 05:18:52;;;;;;;60.03;30.48;;;2.80;99.90;;;;;;5094692;28;20024;-88
2022/03/16 05:21:25;;;;;;;60.28;31.90;;;2.80;99.90;;;;;;5094249;28;20024;-86
2022/03/16 05:23:51;;;;;;;68.45;32.83;;;2.80;99.90;;;;;;5093360;28;20480;-87
2022/03/16 05:26:17;;;;;;;62.75;30.13;;;2.70;99.90;;;;;;5106766;28;20124;-87
2022/03/16 05:28:43;;;;;;;63.45;30.83;;;2.70;99.90;;;;;;5097818;28;20541;-88
2022/03/16 05:31:16;;;;;;;61.30;30.02;;;2.70;99.90;;;;;;5112764;28;20027;-87
2022/03/16 05:33:41;;;;;;;63.95;30.73;;;2.70;99.90;;;;;;5089445;28;20076;-87
2022/03/16 05:36:07;;;;;;;69.45;32.75;;;2.80;99.90;;;;;;5093895;28;20032;-87
2022/03/16 05:38:32;;;;;;;62.50;30.75;;;2.80;99.90;;;;;;5096072;28;20028;-87
2022/03/16 05:40:58;;;;;;;66.13;32.17;;;2.80;99.90;;;;;;5079576;28;20110;-87
2022/03/16 05:43:24;;;;;;;62.25;30.58;;;2.80;99.90;;;;;;5114067;28;20027;-87
2022/03/16 05:45:50;;;;;;;63.42;32.72;;;2.80;99.90;;;;;;5092615;28;20023;-88
2022/03/16 05:48:16;;;;;;;67.15;32.92;;;2.90;99.90;;;;;;5075282;28;20020;-87
2022/03/16 05:50:45;;;;;;;71.03;33.78;;;2.80;99.90;;;;;;5094650;28;20027;-88
2022/03/16 05:53:11;;;;;;;73.03;33.95;;;2.90;99.90;;;;;;5093932;28;20028;-87
2022/03/16 05:55:36;;;;;;;67.68;33.22;;;3.00;99.90;;;;;;5113959;28;20028;-88
2022/03/16 05:58:02;;;;;;;74.93;36.05;;;3.00;99.90;;;;;;5113199;28;20026;-87
2022/03/16 06:00:28;;;;;;;68.60;34.80;;;3.00;99.90;;;;;;5102349;28;20028;-87
2022/03/16 06:02:54;;;;;;;71.97;35.42;;;3.00;99.90;;;;;;5095474;28;20067;-87
2022/03/16 06:05:20;;;;;;;77.38;37.53;;;3.00;99.90;;;;;;5091373;28;20048;-87
2022/03/16 06:07:46;;;;;;;61.88;30.58;;;3.10;99.90;;;;;;5101795;28;20387;-87
2022/03/16 06:10:15;;;;;;;59.85;32.08;;;3.10;99.90;;;;;;5099023;28;20043;-87
2022/03/16 06:12:58;;;;;;;68.53;32.90;;;3.10;99.90;;;;;;5102051;28;20439;-88
2022/03/16 06:15:25;;;;;;;59.15;29.27;;;3.10;99.90;;;;;;5093843;28;20027;-88
2022/03/16 06:18:00;;;;;;;57.58;30.63;;;3.20;99.90;;;;;;5083011;28;20035;-88
2022/03/16 06:20:28;;;;;;;65.28;32.45;;;3.20;99.90;;;;;;5086449;28;20027;-87
2022/03/16 06:22:53;;;;;;;64.97;30.83;;;3.30;99.90;;;;;;5096025;28;20468;-87
2022/03/16 06:25:19;;;;;;;56.17;27.05;;;3.30;99.90;;;;;;5111461;28;20031;-87
2022/03/16 06:27:45;;;;;;;62.70;29.90;;;3.40;99.90;;;;;;5113172;28;20016;-87
2022/03/16 06:30:11;;;;;;;65.70;29.65;;;3.40;99.90;;;;;;5113326;28;20476;-87
2022/03/16 06:32:37;;;;;;;62.03;26.58;;;3.50;99.90;;;;;;5111855;28;20028;-87
2022/03/16 06:35:05;;;;;;;51.45;25.75;;;3.50;99.90;;;;;;5112704;28;20395;-87
2022/03/16 06:37:31;;;;;;;47.33;24.92;;;3.60;99.90;;;;;;5104751;28;20062;-87
2022/03/16 06:39:57;;;;;;;48.30;25.02;;;3.70;99.90;;;;;;5094920;28;20028;-87
2022/03/16 06:42:22;;;;;;;55.78;28.70;;;3.70;99.90;;;;;;5101902;28;20502;-87
2022/03/16 06:44:48;;;;;;;60.28;28.17;;;3.90;99.90;;;;;;5090469;28;20028;-87
2022/03/16 06:47:13;;;;;;;51.38;26.60;;;3.90;99.90;;;;;;5074643;28;20043;-87
2022/03/16 06:49:39;;;;;;;59.10;28.70;;;3.90;99.90;;;;;;5101054;28;20019;-87
2022/03/16 06:52:05;;;;;;;55.70;28.67;;;4.00;99.90;;;;;;5104380;28;20039;-87
2022/03/16 06:54:30;;;;;;;48.63;24.52;;;4.10;99.90;;;;;;5092195;28;20032;-87
2022/03/16 06:56:56;;;;;;;54.80;27.25;;;4.20;99.90;;;;;;5092258;28;20035;-87
2022/03/16 06:59:22;;;;;;;63.20;26.48;;;4.30;99.90;;;;;;5091942;28;20020;-87
2022/03/16 07:01:47;;;;;;;64.88;27.48;;;4.40;99.90;;;;;;5083027;28;20500;-87
2022/03/16 07:04:23;;;;;;;63.33;29.92;;;4.50;99.90;;;;;;5091705;28;20020;-87
2022/03/16 07:06:50;;;;;;;65.82;30.88;;;4.60;99.90;;;;;;5073962;28;20073;-86
2022/03/16 07:09:26;;;;;;;73.35;30.77;;;4.80;99.90;;;;;;5092542;28;20012;-87
2022/03/16 07:11:52;;;;;;;71.97;29.00;;;4.90;99.90;;;;;;5092691;28;20464;-87
2022/03/16 07:14:32;;;;;;;77.13;32.60;;;4.90;99.90;;;;;;5072412;28;20023;-87
2022/03/16 07:17:01;;;;;;;70.18;29.52;;;5.10;99.90;;;;;;5095253;28;20086;-87
2022/03/16 07:19:31;;;;;;;70.60;32.20;;;5.30;99.90;;;;;;5073825;28;20025;-87
2022/03/16 07:21:58;;;;;;;70.93;33.45;;;5.40;99.90;;;;;;5081605;28;20024;-87
2022/03/16 07:24:34;;;;;;;60.25;30.25;;;5.50;99.90;;;;;;5076254;28;20035;-87
2022/03/16 07:27:03;;;;;;;68.50;31.50;;;5.80;99.90;;;;;;5062487;28;20046;-88
2022/03/16 07:29:52;;;;;;;70.57;31.38;;;5.80;99.90;;;;;;5099039;28;20024;-87
2022/03/16 07:32:17;;;;;;;73.75;32.92;;;5.90;99.90;;;;;;5117008;28;20379;-87
2022/03/16 07:34:43;;;;;;;66.22;31.90;;;6.00;99.90;;;;;;5100302;28;20031;-87
2022/03/16 07:37:12;;;;;;;61.42;30.98;;;6.10;99.90;;;;;;5095014;28;20016;-88
2022/03/16 07:39:45;;;;;;;59.40;30.63;;;6.20;99.90;;;;;;5096482;28;20038;-88
2022/03/16 07:42:11;;;;;;;64.97;31.85;;;6.30;99.90;;;;;;5078133;28;20518;-87
2022/03/16 07:44:42;;;;;;;75.72;33.67;;;6.30;99.90;;;;;;5078335;28;20048;-88
2022/03/16 07:47:07;;;;;;;64.93;30.88;;;6.40;99.90;;;;;;5096192;28;20024;-89
2022/03/16 07:49:35;;;;;;;53.00;29.17;;;6.40;99.90;;;;;;5078189;28;20098;-88
2022/03/16 07:52:05;;;;;;;63.65;31.10;;;6.40;99.90;;;;;;5097860;28;20031;-88
2022/03/16 07:54:30;;;;;;;62.38;33.45;;;6.40;99.90;;;;;;5097121;28;20024;-88
2022/03/16 07:56:57;;;;;;;70.00;32.38;;;6.40;99.90;;;;;;5096267;28;20051;-87
2022/03/16 07:59:23;;;;;;;72.53;33.17;;;6.50;99.90;;;;;;5086745;28;20047;-87
2022/03/16 08:01:48;;;;;;;67.05;31.35;;;6.50;99.90;;;;;;5108052;28;20086;-87
2022/03/16 08:04:18;;;;;;;63.55;31.08;;;6.60;99.90;;;;;;5096062;28;20051;-87
2022/03/16 08:06:43;;;;;;;62.55;30.13;;;6.60;99.90;;;;;;5095685;28;20076;-87
2022/03/16 08:09:09;;;;;;;63.33;30.45;;;6.70;99.90;;;;;;5094679;28;20023;-87
2022/03/16 08:11:47;;;;;;;60.55;29.92;;;6.70;99.90;;;;;;5097422;28;20028;-87
2022/03/16 08:14:12;;;;;;;62.75;30.10;;;6.80;99.90;;;;;;5097996;28;20016;-87
2022/03/16 08:16:39;;;;;;;57.50;29.38;;;6.90;99.90;;;;;;5111909;28;20023;-87
2022/03/16 08:19:24;;;;;;;68.28;31.90;;;6.90;99.90;;;;;;5095875;28;20031;-87
2022/03/16 08:21:49;;;;;;;66.55;32.42;;;6.90;99.90;;;;;;5095268;28;20024;-87
2022/03/16 08:24:17;;;;;;;66.03;32.22;;;6.90;99.90;;;;;;5114463;28;20027;-87
2022/03/16 08:26:43;;;;;;;55.72;29.55;;;7.00;99.90;;;;;;5110674;28;20046;-88
2022/03/16 08:29:08;;;;;;;69.30;33.75;;;7.00;99.90;;;;;;5090071;28;20024;-88
2022/03/16 08:31:44;;;;;;;60.38;30.45;;;7.10;99.90;;;;;;5094061;28;20032;-88
2022/03/16 08:34:10;;;;;;;52.60;27.88;;;7.10;99.90;;;;;;5108022;28;20035;-88
2022/03/16 08:36:35;;;;;;;66.80;30.50;;;7.20;99.90;;;;;;5111074;28;20023;-88
2022/03/16 08:39:18;;;;;;;63.78;30.42;;;7.30;99.90;;;;;;5112693;28;20027;-88
2022/03/16 08:41:44;;;;;;;56.97;30.05;;;7.40;99.90;;;;;;5097377;28;20059;-88
2022/03/16 08:44:09;;;;;;;62.30;30.95;;;7.40;99.90;;;;;;5097303;28;20096;-88
2022/03/16 08:46:52;;;;;;;70.38;30.80;;;7.50;99.90;;;;;;5084222;28;20035;-88
2022/03/16 08:49:18;;;;;;;63.03;29.70;;;7.60;99.90;;;;;;5106015;28;20027;-88
2022/03/16 08:51:50;;;;;;;60.95;30.40;;;7.70;99.90;;;;;;5094861;28;20035;-88
2022/03/16 08:54:16;;;;;;;58.88;31.17;;;7.70;99.90;;;;;;5100070;28;20012;-87
2022/03/16 08:56:51;;;;;;;65.90;30.83;;;7.80;99.90;;;;;;5102501;28;20024;-88
2022/03/16 08:59:19;;;;;;;57.00;28.53;;;7.90;99.90;;;;;;5099635;28;20008;-88
2022/03/16 09:01:45;;;;;;;59.97;29.17;;;7.90;99.90;;;;;;5085562;28;20286;-88
2022/03/16 09:04:26;;;;;;;53.33;27.98;;;7.90;99.90;;;;;;5075122;28;20040;-88
2022/03/16 09:06:54;;;;;;;58.45;29.05;;;8.00;99.90;;;;;;5090615;28;20387;-89
2022/03/16 09:09:22;;;;;;;55.75;28.70;;;8.10;99.90;;;;;;5094876;28;20046;-89
2022/03/16 09:11:48;;;;;;;65.47;29.60;;;8.10;99.90;;;;;;5110337;28;20389;-88
2022/03/16 09:14:15;;;;;;;59.80;29.38;;;8.20;99.90;;;;;;5094638;28;20020;-89
2022/03/16 09:16:41;;;;;;;51.30;27.38;;;8.20;99.90;;;;;;5094564;28;20035;-89
2022/03/16 09:19:09;;;;;;;53.58;29.10;;;8.30;99.90;;;;;;5094413;28;20473;-89
2022/03/16 09:21:35;;;;;;;64.45;28.27;;;8.30;99.90;;;;;;5094121;28;20498;-88
2022/03/16 09:24:03;;;;;;;55.92;26.35;;;8.40;99.90;;;;;;5094485;28;20091;-88
2022/03/16 09:26:28;;;;;;;57.22;28.95;;;8.40;99.90;;;;;;5092947;28;20034;-89
2022/03/16 09:29:18;;;;;;;62.08;28.35;;;8.60;99.90;;;;;;5094420;28;20024;-89
2022/03/16 09:31:44;;;;;;;49.22;26.77;;;8.60;99.90;;;;;;5110034;28;20115;-90
2022/03/16 09:34:12;;;;;;;50.15;24.17;;;8.70;99.90;;;;;;5092952;28;20070;-89
2022/03/16 09:36:39;;;;;;;50.33;23.27;;;8.80;99.90;;;;;;5093911;28;20095;-89
2022/03/16 09:39:05;;;;;;;50.97;24.20;;;8.90;99.90;;;;;;5093310;28;20043;-89
2022/03/16 09:41:30;;;;;;;60.28;24.58;;;9.00;99.90;;;;;;5109569;28;20028;-89
2022/03/16 09:43:58;;;;;;;43.53;22.70;;;9.20;99.90;;;;;;5093984;28;20020;-89
2022/03/16 09:46:31;;;;;;;44.92;21.63;;;9.30;99.90;;;;;;5094090;28;20017;-89
2022/03/16 09:49:06;;;;;;;48.20;21.13;;;9.40;99.90;;;;;;5093985;28;20353;-89
2022/03/16 09:51:35;;;;;;;44.45;21.00;;;9.50;99.90;;;;;;5093701;28;20054;-89
2022/03/16 09:54:42;;;;;;;43.33;20.23;;;9.50;99.90;;;;;;5093899;28;20023;-90
2022/03/16 09:57:07;;;;;;;42.83;21.67;;;9.60;99.90;;;;;;5093825;28;20101;-89
2022/03/16 09:59:36;;;;;;;42.95;22.88;;;9.60;99.90;;;;;;5093842;28;20060;-90
2022/03/16 10:02:09;;;;;;;38.00;18.20;;;9.70;99.90;;;;;;5102649;28;20070;-89
2022/03/16 10:04:36;;;;;;;37.35;19.70;;;9.80;99.90;;;;;;5113720;28;20028;-89
2022/03/16 10:07:07;;;;;;;39.78;19.75;;;9.80;99.90;;;;;;5095397;28;20491;-89
2022/03/16 10:15:16;;;;;;;42.38;18.17;;;10.20;99.90;;;;;;5114343;28;20038;-89
2022/03/16 10:17:49;;;;;;;32.28;15.23;;;10.30;99.90;;;;;;5113906;28;20019;-90
2022/03/16 10:20:28;;;;;;;37.13;17.48;;;10.20;99.90;;;;;;5113416;28;20027;-90
2022/03/16 10:23:50;;;;;;;34.97;14.18;;;10.30;99.90;;;;;;5114007;28;20015;-89
2022/03/16 10:26:17;;;;;;;32.13;14.68;;;10.30;99.90;;;;;;5112450;28;20073;-90
2022/03/16 10:29:05;;;;;;;32.85;15.75;;;10.30;99.90;;;;;;5095421;28;20464;-89
2022/03/16 10:31:31;;;;;;;32.70;16.50;;;10.30;99.90;;;;;;5113670;28;20445;-90
2022/03/16 10:33:58;;;;;;;31.35;15.95;;;10.30;99.90;;;;;;5113409;28;20020;-91
2022/03/16 10:36:28;;;;;;;29.75;13.90;;;10.40;99.90;;;;;;5113423;28;20089;-91
2022/03/16 10:38:58;;;;;;;33.88;16.38;;;10.40;99.90;;;;;;5113546;28;20024;-90
2022/03/16 10:47:19;;;;;;;28.00;16.10;;;10.50;99.90;;;;;;5093436;28;20518;-92
2022/03/16 10:49:48;;;;;;;27.90;15.55;;;10.50;99.90;;;;;;5093286;28;20024;-92
2022/03/16 10:52:20;;;;;;;36.53;16.20;;;10.60;99.90;;;;;;5092977;28;20044;-90
2022/03/16 10:54:48;;;;;;;31.60;14.80;;;10.60;99.90;;;;;;5091973;28;20135;-92
2022/03/16 10:57:15;;;;;;;28.92;14.07;;;10.70;99.90;;;;;;5093469;28;20065;-92
2022/03/16 10:59:50;;;;;;;27.80;13.15;;;10.70;99.90;;;;;;5100167;28;20024;-91
2022/03/16 11:02:28;;;;;;;31.60;14.52;;;10.80;99.90;;;;;;5095296;28;20055;-92
2022/03/16 11:04:53;;;;;;;25.75;12.75;;;10.80;99.90;;;;;;5113432;28;20026;-92
2022/03/16 11:07:19;;;;;;;34.55;13.50;;;10.80;99.90;;;;;;5077206;28;20103;-91
2022/03/16 11:09:52;;;;;;;29.63;13.60;;;10.70;99.90;;;;;;5092310;28;20387;-91
2022/03/16 11:15:05;;;;;;;33.55;15.00;;;10.70;99.90;;;;;;5092847;28;20487;-91
2022/03/16 11:17:31;;;;;;;29.50;13.90;;;10.70;99.90;;;;;;5093285;28;20055;-90
2022/03/16 11:20:23;;;;;;;36.85;16.52;;;10.70;99.90;;;;;;5113099;28;20471;-92
2022/03/16 11:26:11;;;;;;;37.25;17.90;;;10.80;99.90;;;;;;5091178;28;20031;-90
2022/03/16 11:28:50;;;;;;;32.30;16.08;;;10.70;99.90;;;;;;5091505;28;20073;-91
2022/03/16 11:31:16;;;;;;;30.13;14.88;;;10.70;99.90;;;;;;5091179;28;20089;-90
2022/03/16 11:34:08;;;;;;;32.67;15.07;;;10.70;99.90;;;;;;5108314;28;20024;-91
2022/03/16 11:36:40;;;;;;;30.42;17.17;;;10.70;99.90;;;;;;5082707;28;20081;-91
2022/03/16 11:39:25;;;;;;;31.98;16.42;;;10.70;99.90;;;;;;5074245;28;20077;-91
2022/03/16 11:41:54;;;;;;;43.92;17.80;;;10.80;99.90;;;;;;5092499;28;20036;-92
2022/03/16 11:44:29;;;;;;;28.25;15.60;;;10.90;99.90;;;;;;5093002;28;20052;-92
2022/03/16 11:50:13;;;;;;;32.90;15.38;;;11.00;99.90;;;;;;5089312;28;19961;-92
2022/03/16 11:53:03;;;;;;;24.35;13.73;;;10.90;99.90;;;;;;5091757;28;20495;-92
2022/03/16 11:55:39;;;;;;;27.50;15.93;;;10.90;99.90;;;;;;5091811;28;20093;-92
2022/03/16 11:58:32;;;;;;;32.22;16.90;;;10.90;99.90;;;;;;5092955;28;20031;-92
2022/03/16 12:04:38;;;;;;;33.22;18.25;;;10.90;99.90;;;;;;5102692;28;20136;-93
2022/03/16 12:07:39;;;;;;;42.58;23.08;;;10.90;99.90;;;;;;5116795;28;20023;-93
2022/03/16 12:10:19;;;;;;;49.50;28.83;;;10.90;99.90;;;;;;5116653;28;20038;-93
2022/03/16 12:12:58;;;;;;;47.47;26.90;;;10.90;99.90;;;;;;5098812;28;20383;-92
2022/03/16 12:15:55;;;;;;;40.95;26.55;;;10.90;99.90;;;;;;5078003;28;20475;-92
2022/03/16 12:18:23;;;;;;;46.33;25.55;;;10.80;99.90;;;;;;5106057;28;20072;-92
2022/03/16 12:21:11;;;;;;;41.55;22.48;;;10.90;99.90;;;;;;5097667;28;20084;-93
2022/03/16 12:23:45;;;;;;;42.65;20.05;;;10.90;99.90;;;;;;5098667;28;20049;-93
2022/03/16 12:26:11;;;;;;;39.17;20.25;;;10.90;99.90;;;;;;5110496;28;20012;-92
2022/03/16 12:28:55;;;;;;;39.17;20.70;;;10.90;99.90;;;;;;5094845;28;20131;-93
2022/03/16 12:31:21;;;;;;;36.90;21.58;;;11.00;99.90;;;;;;5077674;28;20024;-93
2022/03/16 12:33:52;;;;;;;37.47;18.27;;;11.00;99.90;;;;;;5083118;28;20110;-93
2022/03/16 12:36:23;;;;;;;37.05;20.15;;;11.00;99.90;;;;;;5115221;28;20027;-93
2022/03/16 12:39:03;;;;;;;37.35;20.42;;;11.00;99.90;;;;;;5114963;28;20410;-92
2022/03/16 12:44:21;;;;;;;35.63;18.65;;;11.10;99.90;;;;;;5116167;28;20031;-93
2022/03/16 12:47:14;;;;;;;35.80;18.92;;;11.20;99.90;;;;;;5097805;28;20027;-93
2022/03/16 12:49:46;;;;;;;35.90;17.90;;;11.20;99.90;;;;;;5097641;28;20113;-92
2022/03/16 12:52:14;;;;;;;39.90;21.52;;;11.30;99.90;;;;;;5090240;28;20019;-93
2022/03/16 12:54:41;;;;;;;33.70;20.02;;;11.40;99.90;;;;;;5077904;28;20058;-93
2022/03/16 12:57:13;;;;;;;38.60;24.30;;;11.50;99.90;;;;;;5077536;28;20429;-93
2022/03/16 13:00:06;;;;;;;39.78;22.63;;;11.50;99.90;;;;;;5077748;28;20115;-94
2022/03/16 13:05:54;;;;;;;35.97;21.38;;;11.60;99.90;;;;;;5096079;28;20462;-93
2022/03/16 13:08:28;;;;;;;42.88;21.75;;;11.70;99.90;;;;;;5077573;28;20111;-93
2022/03/16 13:14:29;;;;;;;34.33;20.83;;;11.70;99.90;;;;;;5095507;28;20119;-95
2022/03/16 13:16:57;;;;;;;33.85;19.67;;;11.70;99.90;;;;;;5057398;28;20035;-93
2022/03/16 13:19:44;;;;;;;45.10;23.00;;;11.80;99.90;;;;;;5057609;28;20032;-94
2022/03/16 13:22:18;;;;;;;29.75;20.27;;;11.90;99.90;;;;;;5057133;28;20422;-93